Time,TemperatureF,DewpointF,PressureIn,WindDirection,WindDirectionDegrees,WindSpeedMPH,WindSpeedGustMPH,Humidity,HourlyPrecipIn,Conditions,Clouds,dailyrainin,SoftwareType,DateUTC
2015-03-29 00:03:00,19.7,7.7,30.15,South,174,1.0,2.0,59,0.00,,,0.00,Wunderground v.1.15,2015-03-29 04:03:00,
2015-03-29 00:09:00,19.7,7.3,30.15,South,174,1.0,2.0,58,0.00,,,0.00,Wunderground v.1.15,2015-03-29 04:09:00,
2015-03-29 00:14:00,19.7,7.3,30.15,South,174,0.0,2.0,58,0.00,,,0.00,Wunderground v.1.15,2015-03-29 04:14:00,
2015-03-29 00:20:00,19.6,7.6,30.15,South,175,1.0,1.0,59,0.00,,,0.00,Wunderground v.1.15,2015-03-29 04:20:00,
2015-03-29 00:26:00,19.4,7.8,30.15,South,174,1.0,1.0,60,0.00,,,0.00,Wunderground v.1.15,2015-03-29 04:26:00,
2015-03-29 00:32:00,19.2,7.9,30.15,South,174,0.0,1.0,61,0.00,,,0.00,Wunderground v.1.15,2015-03-29 04:32:00,
2015-03-29 00:37:00,18.9,7.3,30.15,South,175,0.0,2.0,60,0.00,,,0.00,Wunderground v.1.15,2015-03-29 04:37:00,
2015-03-29 00:43:00,18.6,7.4,30.15,South,174,0.0,2.0,61,0.00,,,0.00,Wunderground v.1.15,2015-03-29 04:43:00,
2015-03-29 00:49:00,18.5,6.9,30.15,South,174,1.0,2.0,60,0.00,,,0.00,Wunderground v.1.15,2015-03-29 04:49:00,
2015-03-29 00:55:00,18.5,6.2,30.15,South,174,0.0,3.0,58,0.00,,,0.00,Wunderground v.1.15,2015-03-29 04:55:00,
2015-03-29 01:01:00,18.6,6.3,30.15,South,174,0.0,1.0,58,0.00,,,0.00,Wunderground v.1.15,2015-03-29 05:01:00,
2015-03-29 01:07:00,18.4,6.8,30.15,South,174,1.0,1.0,60,0.00,,,0.00,Wunderground v.1.15,2015-03-29 05:07:00,
2015-03-29 01:13:00,18.3,6.0,30.15,South,174,1.0,1.0,58,0.00,,,0.00,Wunderground v.1.15,2015-03-29 05:13:00,
2015-03-29 01:19:00,18.1,6.2,30.15,South,174,0.0,3.0,59,0.00,,,0.00,Wunderground v.1.15,2015-03-29 05:19:00,
2015-03-29 01:24:00,18.2,6.3,30.15,South,174,1.0,1.0,59,0.00,,,0.00,Wunderground v.1.15,2015-03-29 05:24:00,
2015-03-29 01:30:00,18.1,6.2,30.16,South,174,0.0,2.0,59,0.00,,,0.00,Wunderground v.1.15,2015-03-29 05:30:00,
2015-03-29 01:36:00,17.9,6.7,30.15,South,174,1.0,1.0,61,0.00,,,0.00,Wunderground v.1.15,2015-03-29 05:36:00,
2015-03-29 01:42:00,17.6,6.4,30.15,South,174,1.0,1.0,61,0.00,,,0.00,Wunderground v.1.15,2015-03-29 05:42:00,
2015-03-29 01:48:00,17.6,6.1,30.16,South,174,0.0,1.0,60,0.00,,,0.00,Wunderground v.1.15,2015-03-29 05:48:00,
2015-03-29 01:54:00,17.5,6.7,30.16,South,174,1.0,1.0,62,0.00,,,0.00,Wunderground v.1.15,2015-03-29 05:54:00,
2015-03-29 02:01:00,17.4,6.2,30.16,South,174,1.0,1.0,61,0.00,,,0.00,Wunderground v.1.15,2015-03-29 06:01:00,
2015-03-29 02:06:00,17.3,6.8,30.16,South,175,0.0,2.0,63,0.00,,,0.00,Wunderground v.1.15,2015-03-29 06:06:00,
2015-03-29 02:11:00,17.3,5.8,30.16,South,174,0.0,1.0,60,0.00,,,0.00,Wunderground v.1.15,2015-03-29 06:11:00,
2015-03-29 02:16:00,17.2,6.0,30.16,South,175,0.0,4.0,61,0.00,,,0.00,Wunderground v.1.15,2015-03-29 06:16:00,
2015-03-29 02:21:00,17.1,5.9,30.16,South,174,0.0,0.0,61,0.00,,,0.00,Wunderground v.1.15,2015-03-29 06:21:00,
2015-03-29 02:26:00,17.1,6.3,30.16,South,174,1.0,1.0,62,0.00,,,0.00,Wunderground v.1.15,2015-03-29 06:26:00,
2015-03-29 02:31:00,17.1,6.3,30.15,South,174,1.0,1.0,62,0.00,,,0.00,Wunderground v.1.15,2015-03-29 06:31:00,
2015-03-29 02:36:00,17.0,5.9,30.16,South,175,0.0,2.0,61,0.00,,,0.00,Wunderground v.1.15,2015-03-29 06:36:00,
2015-03-29 02:41:00,17.1,5.9,30.16,South,174,0.0,1.0,61,0.00,,,0.00,Wunderground v.1.15,2015-03-29 06:41:00,
2015-03-29 02:46:00,17.1,5.9,30.16,South,174,1.0,3.0,61,0.00,,,0.00,Wunderground v.1.15,2015-03-29 06:46:00,
2015-03-29 02:51:00,17.1,5.9,30.16,South,174,1.0,3.0,61,0.00,,,0.00,Wunderground v.1.15,2015-03-29 06:51:00,
2015-03-29 02:56:00,17.1,6.3,30.16,South,174,1.0,3.0,62,0.00,,,0.00,Wunderground v.1.15,2015-03-29 06:56:00,
2015-03-29 03:01:00,17.0,6.9,30.16,South,174,1.0,1.0,64,0.00,,,0.00,Wunderground v.1.15,2015-03-29 07:01:00,
2015-03-29 03:06:00,16.8,6.7,30.16,South,174,0.0,1.0,64,0.00,,,0.00,Wunderground v.1.15,2015-03-29 07:06:00,
2015-03-29 03:11:00,16.7,5.9,30.17,South,174,0.0,0.0,62,0.00,,,0.00,Wunderground v.1.15,2015-03-29 07:11:00,
2015-03-29 03:16:00,16.6,6.2,30.17,South,174,0.0,0.0,63,0.00,,,0.00,Wunderground v.1.15,2015-03-29 07:16:00,
2015-03-29 03:21:00,16.6,6.2,30.17,South,174,0.0,2.0,63,0.00,,,0.00,Wunderground v.1.15,2015-03-29 07:21:00,
2015-03-29 03:26:00,16.5,6.1,30.17,South,174,0.0,2.0,63,0.00,,,0.00,Wunderground v.1.15,2015-03-29 07:26:00,
2015-03-29 03:31:00,16.3,5.5,30.17,South,174,0.0,1.0,62,0.00,,,0.00,Wunderground v.1.15,2015-03-29 07:31:00,
2015-03-29 03:36:00,16.2,5.8,30.17,South,174,0.0,1.0,63,0.00,,,0.00,Wunderground v.1.15,2015-03-29 07:36:00,
2015-03-29 03:41:00,16.3,6.6,30.17,South,174,0.0,2.0,65,0.00,,,0.00,Wunderground v.1.15,2015-03-29 07:41:00,
2015-03-29 03:46:00,16.2,5.8,30.17,South,174,0.0,2.0,63,0.00,,,0.00,Wunderground v.1.15,2015-03-29 07:46:00,
2015-03-29 03:51:00,16.1,6.1,30.17,South,175,0.0,1.0,64,0.00,,,0.00,Wunderground v.1.15,2015-03-29 07:51:00,
2015-03-29 03:56:00,16.0,6.0,30.17,South,174,0.0,1.0,64,0.00,,,0.00,Wunderground v.1.15,2015-03-29 07:56:00,
2015-03-29 04:01:00,15.9,6.2,30.17,South,174,0.0,0.0,65,0.00,,,0.00,Wunderground v.1.15,2015-03-29 08:01:00,
2015-03-29 04:06:00,15.6,5.9,30.18,South,175,0.0,1.0,65,0.00,,,0.00,Wunderground v.1.15,2015-03-29 08:06:00,
2015-03-29 04:11:00,15.4,6.4,30.18,South,174,0.0,0.0,67,0.00,,,0.00,Wunderground v.1.15,2015-03-29 08:11:00,
2015-03-29 04:16:00,15.1,6.1,30.18,South,174,0.0,0.0,67,0.00,,,0.00,Wunderground v.1.15,2015-03-29 08:16:00,
2015-03-29 04:21:00,14.9,6.2,30.18,South,174,0.0,0.0,68,0.00,,,0.00,Wunderground v.1.15,2015-03-29 08:21:00,
2015-03-29 04:26:00,14.7,6.0,30.18,South,174,0.0,0.0,68,0.00,,,0.00,Wunderground v.1.15,2015-03-29 08:26:00,
2015-03-29 04:31:00,14.5,6.2,30.18,South,175,0.0,0.0,69,0.00,,,0.00,Wunderground v.1.15,2015-03-29 08:31:00,
2015-03-29 04:36:00,14.4,6.4,30.19,South,174,0.0,0.0,70,0.00,,,0.00,Wunderground v.1.15,2015-03-29 08:36:00,
2015-03-29 04:41:00,14.4,5.8,30.19,South,175,0.0,2.0,68,0.00,,,0.00,Wunderground v.1.15,2015-03-29 08:41:00,
2015-03-29 04:46:00,14.5,6.2,30.19,South,174,0.0,2.0,69,0.00,,,0.00,Wunderground v.1.15,2015-03-29 08:46:00,
2015-03-29 04:51:00,14.5,5.2,30.19,South,175,0.0,1.0,66,0.00,,,0.00,Wunderground v.1.15,2015-03-29 08:51:00,
2015-03-29 04:56:00,14.4,4.8,30.19,South,174,0.0,1.0,65,0.00,,,0.00,Wunderground v.1.15,2015-03-29 08:56:00,
2015-03-29 05:01:00,14.3,5.7,30.20,South,174,0.0,1.0,68,0.00,,,0.00,Wunderground v.1.15,2015-03-29 09:01:00,
2015-03-29 05:06:00,14.1,6.1,30.20,South,174,0.0,1.0,70,0.00,,,0.00,Wunderground v.1.15,2015-03-29 09:06:00,
2015-03-29 05:11:00,14.1,6.7,30.20,South,174,0.0,0.0,72,0.00,,,0.00,Wunderground v.1.15,2015-03-29 09:11:00,
2015-03-29 05:16:00,14.1,7.0,30.20,South,174,0.0,1.0,73,0.00,,,0.00,Wunderground v.1.15,2015-03-29 09:16:00,
2015-03-29 05:21:00,14.0,6.6,30.21,South,174,0.0,0.0,72,0.00,,,0.00,Wunderground v.1.15,2015-03-29 09:21:00,
2015-03-29 05:26:00,13.9,6.2,30.21,South,174,0.0,0.0,71,0.00,,,0.00,Wunderground v.1.15,2015-03-29 09:26:00,
2015-03-29 05:31:00,13.8,5.8,30.21,South,174,0.0,0.0,70,0.00,,,0.00,Wunderground v.1.15,2015-03-29 09:31:00,
2015-03-29 05:36:00,13.8,6.1,30.22,South,174,0.0,0.0,71,0.00,,,0.00,Wunderground v.1.15,2015-03-29 09:36:00,
2015-03-29 05:41:00,13.7,6.0,30.22,South,174,0.0,0.0,71,0.00,,,0.00,Wunderground v.1.15,2015-03-29 09:41:00,
2015-03-29 05:46:00,13.5,6.5,30.22,South,174,0.0,0.0,73,0.00,,,0.00,Wunderground v.1.15,2015-03-29 09:46:00,
2015-03-29 05:51:00,13.3,6.0,30.22,South,175,0.0,0.0,72,0.00,,,0.00,Wunderground v.1.15,2015-03-29 09:51:00,
2015-03-29 05:56:00,13.2,5.6,30.23,South,174,0.0,0.0,71,0.00,,,0.00,Wunderground v.1.15,2015-03-29 09:56:00,
2015-03-29 06:01:00,13.2,5.6,30.23,South,175,0.0,0.0,71,0.00,,,0.00,Wunderground v.1.15,2015-03-29 10:01:00,
2015-03-29 06:06:00,13.3,5.3,30.23,South,174,0.0,0.0,70,0.00,,,0.00,Wunderground v.1.15,2015-03-29 10:06:00,
2015-03-29 06:11:00,13.3,5.0,30.23,South,174,0.0,0.0,69,0.00,,,0.00,Wunderground v.1.15,2015-03-29 10:11:00,
2015-03-29 06:16:00,13.3,5.3,30.23,South,174,0.0,0.0,70,0.00,,,0.00,Wunderground v.1.15,2015-03-29 10:16:00,
2015-03-29 06:21:00,13.3,5.3,30.24,South,174,0.0,0.0,70,0.00,,,0.00,Wunderground v.1.15,2015-03-29 10:21:00,
2015-03-29 06:26:00,11.5,3.3,30.24,South,175,0.0,0.0,69,0.00,,,0.00,Wunderground v.1.15,2015-03-29 10:26:00,
2015-03-29 06:31:00,11.5,3.3,30.24,South,175,0.0,0.0,69,0.00,,,0.00,Wunderground v.1.15,2015-03-29 10:31:00,
2015-03-29 06:36:00,-999.9,-99.9,30.24,North,32767,-999.9,0.0,255,-99.99,,,0.00,Wunderground v.1.15,2015-03-29 10:36:00,
2015-03-29 06:41:00,-999.9,-99.9,30.25,North,32767,-999.9,-999.0,255,-99.99,,,0.00,Wunderground v.1.15,2015-03-29 10:41:00,
2015-03-29 06:46:00,-999.9,-99.9,30.25,North,32767,-999.9,-999.0,255,-99.99,,,0.00,Wunderground v.1.15,2015-03-29 10:46:00,
2015-03-29 06:51:00,-999.9,-99.9,30.25,North,32767,-999.9,-999.0,255,-99.99,,,0.00,Wunderground v.1.15,2015-03-29 10:51:00,
2015-03-29 06:56:00,13.3,6.0,30.25,South,174,0.0,0.0,72,0.00,,,0.00,Wunderground v.1.15,2015-03-29 10:56:00,
2015-03-29 07:01:00,13.3,6.6,30.25,South,175,0.0,0.0,74,0.00,,,0.00,Wunderground v.1.15,2015-03-29 11:01:00,
2015-03-29 07:06:00,13.4,7.0,30.25,South,174,0.0,0.0,75,0.00,,,0.00,Wunderground v.1.15,2015-03-29 11:06:00,
2015-03-29 07:11:00,13.7,6.9,30.25,South,175,0.0,0.0,74,0.00,,,0.00,Wunderground v.1.15,2015-03-29 11:11:00,
2015-03-29 07:16:00,14.1,7.3,30.26,South,174,0.0,0.0,74,0.00,,,0.00,Wunderground v.1.15,2015-03-29 11:16:00,
2015-03-29 07:21:00,14.5,7.1,30.26,South,174,0.0,0.0,72,0.00,,,0.00,Wunderground v.1.15,2015-03-29 11:21:00,
2015-03-29 07:26:00,15.0,7.9,30.26,South,174,0.0,0.0,73,0.00,,,0.00,Wunderground v.1.15,2015-03-29 11:26:00,
2015-03-29 07:31:00,15.6,8.8,30.27,South,175,0.0,1.0,74,0.00,,,0.00,Wunderground v.1.15,2015-03-29 11:31:00,
2015-03-29 07:36:00,15.8,9.0,30.27,South,174,0.0,1.0,74,0.00,,,0.00,Wunderground v.1.15,2015-03-29 11:36:00,
2015-03-29 07:41:00,15.9,8.5,30.27,South,174,0.0,1.0,72,0.00,,,0.00,Wunderground v.1.15,2015-03-29 11:41:00,
2015-03-29 07:46:00,16.7,8.6,30.27,South,174,0.0,1.0,70,0.00,,,0.00,Wunderground v.1.15,2015-03-29 11:46:00,
2015-03-29 07:51:00,17.6,8.5,30.27,South,174,0.0,0.0,67,0.00,,,0.00,Wunderground v.1.15,2015-03-29 11:51:00,
2015-03-29 07:56:00,18.4,8.2,30.28,South,174,0.0,2.0,64,0.00,,,0.00,Wunderground v.1.15,2015-03-29 11:56:00,
2015-03-29 08:01:00,19.0,9.2,30.28,South,174,1.0,1.0,65,0.00,,,0.00,Wunderground v.1.15,2015-03-29 12:01:00,
2015-03-29 08:06:00,19.6,7.6,30.28,South,174,1.0,4.0,59,0.00,,,0.00,Wunderground v.1.15,2015-03-29 12:06:00,
2015-03-29 08:11:00,20.1,7.3,30.28,South,174,0.0,1.0,57,0.00,,,0.00,Wunderground v.1.15,2015-03-29 12:11:00,
2015-03-29 08:16:00,20.7,7.1,30.28,South,175,0.0,2.0,55,0.00,,,0.00,Wunderground v.1.15,2015-03-29 12:16:00,
2015-03-29 08:21:00,21.1,7.0,30.28,South,174,0.0,1.0,54,0.00,,,0.00,Wunderground v.1.15,2015-03-29 12:21:00,
2015-03-29 08:26:00,21.4,6.5,30.28,South,174,1.0,2.0,52,0.00,,,0.00,Wunderground v.1.15,2015-03-29 12:26:00,
2015-03-29 08:31:00,21.6,6.7,30.28,South,175,1.0,2.0,52,0.00,,,0.00,Wunderground v.1.15,2015-03-29 12:31:00,
2015-03-29 08:36:00,21.9,6.5,30.28,South,174,1.0,3.0,51,0.00,,,0.00,Wunderground v.1.15,2015-03-29 12:36:00,
2015-03-29 08:41:00,22.2,6.4,30.28,South,174,1.0,2.0,50,0.00,,,0.00,Wunderground v.1.15,2015-03-29 12:41:00,
2015-03-29 08:46:00,22.5,6.6,30.29,South,174,1.0,3.0,50,0.00,,,0.00,Wunderground v.1.15,2015-03-29 12:46:00,
2015-03-29 08:51:00,22.9,7.0,30.29,South,174,1.0,4.0,50,0.00,,,0.00,Wunderground v.1.15,2015-03-29 12:51:00,
2015-03-29 08:56:00,23.1,6.7,30.29,South,174,1.0,4.0,49,0.00,,,0.00,Wunderground v.1.15,2015-03-29 12:56:00,
2015-03-29 09:01:00,23.3,6.5,30.29,South,174,0.0,3.0,48,0.00,,,0.00,Wunderground v.1.15,2015-03-29 13:01:00,
2015-03-29 09:06:00,23.6,7.2,30.29,South,174,1.0,3.0,49,0.00,,,0.00,Wunderground v.1.15,2015-03-29 13:06:00,
2015-03-29 09:11:00,24.0,7.6,30.29,South,174,0.0,4.0,49,0.00,,,0.00,Wunderground v.1.15,2015-03-29 13:11:00,
2015-03-29 09:16:00,24.4,7.9,30.30,South,174,0.0,4.0,49,0.00,,,0.00,Wunderground v.1.15,2015-03-29 13:16:00,
2015-03-29 09:21:00,24.8,6.9,30.30,South,174,0.0,3.0,46,0.00,,,0.00,Wunderground v.1.15,2015-03-29 13:21:00,
2015-03-29 09:26:00,25.0,6.1,30.30,South,174,1.0,3.0,44,0.00,,,0.00,Wunderground v.1.15,2015-03-29 13:26:00,
2015-03-29 09:31:00,25.5,7.1,30.30,South,174,0.0,1.0,45,0.00,,,0.00,Wunderground v.1.15,2015-03-29 13:31:00,
2015-03-29 09:36:00,25.9,5.9,30.30,South,174,0.0,2.0,42,0.00,,,0.00,Wunderground v.1.15,2015-03-29 13:36:00,
2015-03-29 09:41:00,26.5,5.9,30.30,South,174,0.0,3.0,41,0.00,,,0.00,Wunderground v.1.15,2015-03-29 13:41:00,
2015-03-29 09:47:00,27.0,7.4,30.30,South,174,1.0,3.0,43,0.00,,,0.00,Wunderground v.1.15,2015-03-29 13:47:00,
2015-03-29 09:52:00,27.3,5.0,30.31,South,174,0.0,4.0,38,0.00,,,0.00,Wunderground v.1.15,2015-03-29 13:52:00,
2015-03-29 09:57:00,27.6,5.8,30.30,South,174,1.0,4.0,39,0.00,,,0.00,Wunderground v.1.15,2015-03-29 13:57:00,
2015-03-29 10:02:00,28.2,5.8,30.30,South,175,1.0,1.0,38,0.00,,,0.00,Wunderground v.1.15,2015-03-29 14:02:00,
2015-03-29 10:07:00,28.6,5.0,30.31,South,175,3.0,4.0,36,0.00,,,0.00,Wunderground v.1.15,2015-03-29 14:07:00,
2015-03-29 10:12:00,29.0,5.3,30.31,South,174,1.0,6.0,36,0.00,,,0.00,Wunderground v.1.15,2015-03-29 14:12:00,
2015-03-29 10:17:00,29.7,6.6,30.31,South,174,3.0,6.0,37,0.00,,,0.00,Wunderground v.1.15,2015-03-29 14:17:00,
2015-03-29 10:22:00,30.2,7.6,30.31,South,175,1.0,2.0,38,0.00,,,0.00,Wunderground v.1.15,2015-03-29 14:22:00,
2015-03-29 10:27:00,30.5,6.7,30.30,South,174,0.0,4.0,36,0.00,,,0.00,Wunderground v.1.15,2015-03-29 14:27:00,
2015-03-29 10:32:00,30.8,5.0,30.31,South,174,2.0,2.0,33,0.00,,,0.00,Wunderground v.1.15,2015-03-29 14:32:00,
2015-03-29 10:37:00,31.2,4.0,30.31,South,174,1.0,4.0,31,0.00,,,0.00,Wunderground v.1.15,2015-03-29 14:37:00,
2015-03-29 10:42:00,31.5,6.3,30.31,South,175,1.0,2.0,34,0.00,,,0.00,Wunderground v.1.15,2015-03-29 14:42:00,
2015-03-29 10:47:00,31.9,5.3,30.31,South,174,0.0,4.0,32,0.00,,,0.00,Wunderground v.1.15,2015-03-29 14:47:00,
2015-03-29 10:52:00,32.2,6.3,30.31,South,174,3.0,4.0,33,0.00,,,0.00,Wunderground v.1.15,2015-03-29 14:52:00,
2015-03-29 10:57:00,32.6,5.9,30.31,South,173,0.0,4.0,32,0.00,,,0.00,Wunderground v.1.15,2015-03-29 14:57:00,
2015-03-29 11:02:00,33.2,7.2,30.31,South,174,1.0,1.0,33,0.00,,,0.00,Wunderground v.1.15,2015-03-29 15:02:00,
2015-03-29 11:07:00,33.7,6.9,30.31,South,174,0.0,3.0,32,0.00,,,0.00,Wunderground v.1.15,2015-03-29 15:07:00,
2015-03-29 11:12:00,33.7,5.5,30.31,South,176,1.0,2.0,30,0.00,,,0.00,Wunderground v.1.15,2015-03-29 15:12:00,
2015-03-29 11:17:00,34.0,7.2,30.30,South,187,2.0,3.0,32,0.00,,,0.00,Wunderground v.1.15,2015-03-29 15:17:00,
2015-03-29 11:22:00,34.2,5.2,30.30,South,187,4.0,5.0,29,0.00,,,0.00,Wunderground v.1.15,2015-03-29 15:22:00,
2015-03-29 11:27:00,34.1,8.0,30.30,South,187,3.0,5.0,33,0.00,,,0.00,Wunderground v.1.15,2015-03-29 15:27:00,
2015-03-29 11:32:00,34.2,5.2,30.30,South,187,1.0,2.0,29,0.00,,,0.00,Wunderground v.1.15,2015-03-29 15:32:00,
2015-03-29 11:37:00,34.5,4.7,30.29,South,177,1.0,5.0,28,0.00,,,0.00,Wunderground v.1.15,2015-03-29 15:37:00,
2015-03-29 11:42:00,34.7,6.4,30.29,South,187,0.0,3.0,30,0.00,,,0.00,Wunderground v.1.15,2015-03-29 15:42:00,
2015-03-29 11:47:00,35.0,5.9,30.29,South,187,9.0,9.0,29,0.00,,,0.00,Wunderground v.1.15,2015-03-29 15:47:00,
2015-03-29 11:52:00,34.3,6.7,30.29,South,187,2.0,3.0,31,0.00,,,0.00,Wunderground v.1.15,2015-03-29 15:52:00,
2015-03-29 11:57:00,34.1,6.6,30.29,South,187,2.0,4.0,31,0.00,,,0.00,Wunderground v.1.15,2015-03-29 15:57:00,
2015-03-29 12:02:00,34.4,4.6,30.29,South,187,1.0,2.0,28,0.00,,,0.00,Wunderground v.1.15,2015-03-29 16:02:00,
2015-03-29 12:07:00,34.3,5.3,30.29,South,187,1.0,6.0,29,0.00,,,0.00,Wunderground v.1.15,2015-03-29 16:07:00,
2015-03-29 12:12:00,34.6,4.0,30.29,South,187,1.0,4.0,27,0.00,,,0.00,Wunderground v.1.15,2015-03-29 16:12:00,
2015-03-29 12:17:00,34.7,7.8,30.29,South,187,0.0,5.0,32,0.00,,,0.00,Wunderground v.1.15,2015-03-29 16:17:00,
2015-03-29 12:22:00,35.5,7.1,30.28,South,187,3.0,3.0,30,0.00,,,0.00,Wunderground v.1.15,2015-03-29 16:22:00,
2015-03-29 12:27:00,35.5,4.8,30.28,South,187,1.0,6.0,27,0.00,,,0.00,Wunderground v.1.15,2015-03-29 16:27:00,
2015-03-29 12:32:00,35.5,5.6,30.28,South,187,3.0,3.0,28,0.00,,,0.00,Wunderground v.1.15,2015-03-29 16:32:00,
2015-03-29 12:37:00,35.8,7.3,30.28,South,187,3.0,5.0,30,0.00,,,0.00,Wunderground v.1.15,2015-03-29 16:37:00,
2015-03-29 12:42:00,36.3,7.8,30.28,South,187,2.0,3.0,30,0.00,,,0.00,Wunderground v.1.15,2015-03-29 16:42:00,
2015-03-29 12:47:00,36.5,8.0,30.28,South,187,3.0,3.0,30,0.00,,,0.00,Wunderground v.1.15,2015-03-29 16:47:00,
2015-03-29 12:52:00,36.9,10.4,30.27,South,176,1.0,2.0,33,0.00,,,0.00,Wunderground v.1.15,2015-03-29 16:52:00,
2015-03-29 12:57:00,37.7,9.0,30.27,South,174,3.0,3.0,30,0.00,,,0.00,Wunderground v.1.15,2015-03-29 16:57:00,
2015-03-29 13:02:00,37.5,9.6,30.27,South,175,4.0,4.0,31,0.00,,,0.00,Wunderground v.1.15,2015-03-29 17:02:00,
2015-03-29 13:07:00,37.3,7.9,30.27,South,174,1.0,4.0,29,0.00,,,0.00,Wunderground v.1.15,2015-03-29 17:07:00,
2015-03-29 13:12:00,37.4,8.0,30.27,South,174,3.0,6.0,29,0.00,,,0.00,Wunderground v.1.15,2015-03-29 17:12:00,
2015-03-29 13:17:00,37.0,8.4,30.26,South,174,2.0,6.0,30,0.00,,,0.00,Wunderground v.1.15,2015-03-29 17:17:00,
2015-03-29 13:22:00,37.2,7.0,30.27,South,174,1.0,2.0,28,0.00,,,0.00,Wunderground v.1.15,2015-03-29 17:22:00,
2015-03-29 13:27:00,37.2,8.6,30.27,South,174,0.0,6.0,30,0.00,,,0.01,Wunderground v.1.15,2015-03-29 17:27:00,
2015-03-29 13:32:00,37.1,6.9,30.26,South,175,1.0,4.0,28,0.00,,,0.01,Wunderground v.1.15,2015-03-29 17:32:00,
2015-03-29 13:37:00,37.5,8.8,30.26,South,175,1.0,4.0,30,0.00,,,0.01,Wunderground v.1.15,2015-03-29 17:37:00,
2015-03-29 13:42:00,37.2,8.6,30.26,South,174,2.0,3.0,30,0.00,,,0.01,Wunderground v.1.15,2015-03-29 17:42:00,
2015-03-29 13:47:00,37.2,7.0,30.26,South,174,4.0,6.0,28,0.00,,,0.01,Wunderground v.1.15,2015-03-29 17:47:00,
2015-03-29 13:52:00,37.0,7.6,30.26,South,175,1.0,2.0,29,0.00,,,0.01,Wunderground v.1.15,2015-03-29 17:52:00,
2015-03-29 13:57:00,36.8,6.7,30.26,South,174,1.0,8.0,28,0.00,,,0.01,Wunderground v.1.15,2015-03-29 17:57:00,
2015-03-29 14:02:00,36.4,8.6,30.25,South,174,1.0,6.0,31,0.00,,,0.01,Wunderground v.1.15,2015-03-29 18:02:00,
2015-03-29 14:07:00,37.1,8.5,30.25,South,174,2.0,6.0,30,0.00,,,0.01,Wunderground v.1.15,2015-03-29 18:07:00,
2015-03-29 14:12:00,37.2,10.7,30.25,South,175,2.0,5.0,33,0.00,,,0.01,Wunderground v.1.15,2015-03-29 18:12:00,
2015-03-29 14:17:00,37.6,8.2,30.25,South,175,2.0,6.0,29,0.00,,,0.01,Wunderground v.1.15,2015-03-29 18:17:00,
2015-03-29 14:22:00,36.9,7.5,30.25,South,174,0.0,2.0,29,0.00,,,0.01,Wunderground v.1.15,2015-03-29 18:22:00,
2015-03-29 14:27:00,37.1,7.7,30.24,South,174,2.0,7.0,29,0.00,,,0.01,Wunderground v.1.15,2015-03-29 18:27:00,
2015-03-29 14:32:00,37.6,7.4,30.24,South,175,0.0,4.0,28,0.00,,,0.01,Wunderground v.1.15,2015-03-29 18:32:00,
2015-03-29 14:37:00,38.0,6.9,30.24,South,174,1.0,6.0,27,0.00,,,0.01,Wunderground v.1.15,2015-03-29 18:37:00,
2015-03-29 14:42:00,38.5,8.2,30.24,South,174,0.0,2.0,28,0.00,,,0.01,Wunderground v.1.15,2015-03-29 18:42:00,
2015-03-29 14:47:00,38.7,6.7,30.23,South,174,0.0,5.0,26,0.00,,,0.01,Wunderground v.1.15,2015-03-29 18:47:00,
2015-03-29 14:52:00,38.4,8.1,30.23,South,174,1.0,4.0,28,0.00,,,0.01,Wunderground v.1.15,2015-03-29 18:52:00,
2015-03-29 14:57:00,37.9,8.4,30.23,South,175,1.0,6.0,29,0.00,,,0.01,Wunderground v.1.15,2015-03-29 18:57:00,
2015-03-29 15:02:00,38.6,10.5,30.23,South,175,0.0,2.0,31,0.00,,,0.01,Wunderground v.1.15,2015-03-29 19:02:00,
2015-03-29 15:07:00,38.9,7.7,30.22,South,175,4.0,4.0,27,0.00,,,0.01,Wunderground v.1.15,2015-03-29 19:07:00,
2015-03-29 15:12:00,38.7,9.1,30.22,South,174,2.0,2.0,29,0.00,,,0.01,Wunderground v.1.15,2015-03-29 19:12:00,
2015-03-29 15:17:00,38.6,8.2,30.22,South,175,1.0,5.0,28,0.00,,,0.01,Wunderground v.1.15,2015-03-29 19:17:00,
2015-03-29 15:22:00,38.5,8.2,30.22,South,174,4.0,6.0,28,0.00,,,0.01,Wunderground v.1.15,2015-03-29 19:22:00,
2015-03-29 15:27:00,38.6,7.4,30.22,South,174,3.0,6.0,27,0.00,,,0.01,Wunderground v.1.15,2015-03-29 19:27:00,
2015-03-29 15:33:00,38.4,8.1,30.22,South,174,0.0,3.0,28,0.00,,,0.01,Wunderground v.1.15,2015-03-29 19:33:00,
2015-03-29 15:38:00,39.2,11.0,30.21,South,174,1.0,3.0,31,0.00,,,0.01,Wunderground v.1.15,2015-03-29 19:38:00,
2015-03-29 15:43:00,39.9,7.7,30.21,South,174,4.0,5.0,26,0.00,,,0.01,Wunderground v.1.15,2015-03-29 19:43:00,
2015-03-29 15:48:00,38.8,6.8,30.21,South,174,3.0,7.0,26,0.00,,,0.01,Wunderground v.1.15,2015-03-29 19:48:00,
2015-03-29 15:53:00,38.7,5.8,30.21,South,175,0.0,5.0,25,0.00,,,0.01,Wunderground v.1.15,2015-03-29 19:53:00,
2015-03-29 15:58:00,39.0,9.4,30.21,South,174,1.0,5.0,29,0.00,,,0.01,Wunderground v.1.15,2015-03-29 19:58:00,
2015-03-29 16:03:00,39.1,10.2,30.21,South,174,2.0,3.0,30,0.00,,,0.01,Wunderground v.1.15,2015-03-29 20:03:00,
2015-03-29 16:08:00,38.7,10.6,30.21,South,174,0.0,3.0,31,0.00,,,0.01,Wunderground v.1.15,2015-03-29 20:08:00,
2015-03-29 16:13:00,39.3,9.6,30.21,South,174,3.0,3.0,29,0.00,,,0.01,Wunderground v.1.15,2015-03-29 20:13:00,
2015-03-29 16:18:00,38.9,7.7,30.21,South,174,0.0,6.0,27,0.00,,,0.01,Wunderground v.1.15,2015-03-29 20:18:00,
2015-03-29 16:23:00,38.9,9.3,30.21,South,174,0.0,2.0,29,0.00,,,0.01,Wunderground v.1.15,2015-03-29 20:23:00,
2015-03-29 16:28:00,38.9,11.5,30.20,South,175,1.0,3.0,32,0.00,,,0.01,Wunderground v.1.15,2015-03-29 20:28:00,
2015-03-29 16:33:00,38.9,8.5,30.20,South,174,1.0,4.0,28,0.00,,,0.01,Wunderground v.1.15,2015-03-29 20:33:00,
2015-03-29 16:38:00,38.9,7.7,30.20,South,174,2.0,4.0,27,0.00,,,0.01,Wunderground v.1.15,2015-03-29 20:38:00,
2015-03-29 16:43:00,38.6,9.0,30.19,South,174,2.0,5.0,29,0.00,,,0.01,Wunderground v.1.15,2015-03-29 20:43:00,
2015-03-29 16:48:00,38.5,9.7,30.19,South,174,2.0,5.0,30,0.00,,,0.01,Wunderground v.1.15,2015-03-29 20:48:00,
2015-03-29 16:53:00,38.5,8.2,30.19,South,174,2.0,6.0,28,0.00,,,0.01,Wunderground v.1.15,2015-03-29 20:53:00,
2015-03-29 16:58:00,38.5,6.5,30.19,South,174,1.0,6.0,26,0.00,,,0.01,Wunderground v.1.15,2015-03-29 20:58:00,
2015-03-29 17:03:00,38.3,9.5,30.19,South,174,1.0,2.0,30,0.00,,,0.01,Wunderground v.1.15,2015-03-29 21:03:00,
2015-03-29 17:08:00,38.7,8.3,30.19,South,175,2.0,2.0,28,0.00,,,0.01,Wunderground v.1.15,2015-03-29 21:08:00,
2015-03-29 17:13:00,38.8,8.4,30.20,South,174,1.0,3.0,28,0.00,,,0.01,Wunderground v.1.15,2015-03-29 21:13:00,
2015-03-29 17:18:00,38.3,11.7,30.20,South,174,0.0,3.0,33,0.00,,,0.01,Wunderground v.1.15,2015-03-29 21:18:00,
2015-03-29 17:23:00,38.2,9.4,30.20,South,174,1.0,4.0,30,0.00,,,0.01,Wunderground v.1.15,2015-03-29 21:23:00,
2015-03-29 17:28:00,37.7,7.5,30.20,South,174,3.0,5.0,28,0.00,,,0.01,Wunderground v.1.15,2015-03-29 21:28:00,
2015-03-29 17:33:00,36.9,9.7,30.20,South,174,0.0,4.0,32,0.00,,,0.01,Wunderground v.1.15,2015-03-29 21:33:00,
2015-03-29 17:38:00,36.6,12.7,30.20,South,174,0.0,4.0,37,0.00,,,0.01,Wunderground v.1.15,2015-03-29 21:38:00,
2015-03-29 17:43:00,36.1,11.0,30.20,South,174,0.0,2.0,35,0.00,,,0.01,Wunderground v.1.15,2015-03-29 21:43:00,
2015-03-29 17:48:00,35.6,11.2,30.20,South,174,1.0,2.0,36,0.00,,,0.01,Wunderground v.1.15,2015-03-29 21:48:00,
2015-03-29 17:53:00,35.1,11.4,30.20,South,174,2.0,3.0,37,0.00,,,0.01,Wunderground v.1.15,2015-03-29 21:53:00,
2015-03-29 17:58:00,35.2,7.5,30.20,South,174,0.0,3.0,31,0.00,,,0.01,Wunderground v.1.15,2015-03-29 21:58:00,
2015-03-29 18:03:00,35.0,11.9,30.20,South,174,1.0,1.0,38,0.00,,,0.01,Wunderground v.1.15,2015-03-29 22:03:00,
2015-03-29 18:08:00,34.8,7.2,30.20,South,174,0.0,1.0,31,0.00,,,0.01,Wunderground v.1.15,2015-03-29 22:08:00,
2015-03-29 18:13:00,34.6,10.3,30.20,South,174,3.0,3.0,36,0.00,,,0.01,Wunderground v.1.15,2015-03-29 22:13:00,
2015-03-29 18:18:00,34.2,11.8,30.20,South,174,0.0,3.0,39,0.00,,,0.01,Wunderground v.1.15,2015-03-29 22:18:00,
2015-03-29 18:23:00,33.7,11.9,30.20,South,175,0.0,1.0,40,0.00,,,0.01,Wunderground v.1.15,2015-03-29 22:23:00,
2015-03-29 18:28:00,33.4,13.3,30.20,South,174,0.0,1.0,43,0.00,,,0.01,Wunderground v.1.15,2015-03-29 22:28:00,
2015-03-29 18:33:00,33.2,12.0,30.20,South,174,0.0,1.0,41,0.00,,,0.01,Wunderground v.1.15,2015-03-29 22:33:00,
2015-03-29 18:38:00,32.8,13.8,30.20,South,174,0.0,1.0,45,0.00,,,0.01,Wunderground v.1.15,2015-03-29 22:38:00,
2015-03-29 18:43:00,32.5,13.5,30.20,South,174,0.0,0.0,45,0.00,,,0.01,Wunderground v.1.15,2015-03-29 22:43:00,
2015-03-29 18:48:00,32.2,12.7,30.20,South,174,1.0,1.0,44,0.00,,,0.01,Wunderground v.1.15,2015-03-29 22:48:00,
2015-03-29 18:53:00,32.1,9.3,30.20,South,174,0.0,0.0,38,0.00,,,0.01,Wunderground v.1.15,2015-03-29 22:53:00,
2015-03-29 18:58:00,31.9,12.4,30.20,South,174,0.0,0.0,44,0.00,,,0.01,Wunderground v.1.15,2015-03-29 22:58:00,